sensor_id;sensor_type;location;lat;lon;timestamp;temperature;humidity
53876;DHT22;39789;53.216;5.624;2023-02-07T00:00:47;1.20;99.90
53876;DHT22;39789;53.216;5.624;2023-02-07T00:03:13;1.20;99.90
53876;DHT22;39789;53.216;5.624;2023-02-07T00:05:38;1.20;99.90
53876;DHT22;39789;53.216;5.624;2023-02-07T00:08:04;1.30;99.90
53876;DHT22;39789;53.216;5.624;2023-02-07T00:10:31;1.20;99.90
53876;DHT22;39789;53.216;5.624;2023-02-07T00:12:56;1.20;99.90
53876;DHT22;39789;53.216;5.624;2023-02-07T00:15:22;1.20;99.90
53876;DHT22;39789;53.216;5.624;2023-02-07T00:17:48;1.10;99.90
53876;DHT22;39789;53.216;5.624;2023-02-07T00:20:14;1.00;99.90
53876;DHT22;39789;53.216;5.624;2023-02-07T00:22:42;1.00;99.90
53876;DHT22;39789;53.216;5.624;2023-02-07T00:25:08;1.00;99.90
53876;DHT22;39789;53.216;5.624;2023-02-07T00:27:34;0.80;99.90
53876;DHT22;39789;53.216;5.624;2023-02-07T00:29:59;0.70;99.90
53876;DHT22;39789;53.216;5.624;2023-02-07T00:32:25;0.70;99.90
53876;DHT22;39789;53.216;5.624;2023-02-07T00:34:50;0.60;99.90
53876;DHT22;39789;53.216;5.624;2023-02-07T00:37:16;0.70;99.90
53876;DHT22;39789;53.216;5.624;2023-02-07T00:39:42;0.60;99.90
53876;DHT22;39789;53.216;5.624;2023-02-07T00:42:07;1.30;99.90
53876;DHT22;39789;53.216;5.624;2023-02-07T00:44:33;0.60;99.90
53876;DHT22;39789;53.216;5.624;2023-02-07T00:46:59;0.50;99.90
53876;DHT22;39789;53.216;5.624;2023-02-07T00:49:24;1.00;99.90
53876;DHT22;39789;53.216;5.624;2023-02-07T00:51:50;1.10;99.90
53876;DHT22;39789;53.216;5.624;2023-02-07T00:54:16;1.30;99.90
53876;DHT22;39789;53.216;5.624;2023-02-07T00:56:41;0.90;99.90
53876;DHT22;39789;53.216;5.624;2023-02-07T00:59:07;0.70;99.90
53876;DHT22;39789;53.216;5.624;2023-02-07T01:01:32;0.60;99.90
53876;DHT22;39789;53.216;5.624;2023-02-07T01:03:58;1.10;99.90
53876;DHT22;39789;53.216;5.624;2023-02-07T01:06:24;0.50;99.90
53876;DHT22;39789;53.216;5.624;2023-02-07T01:08:54;0.50;99.90
53876;DHT22;39789;53.216;5.624;2023-02-07T01:11:19;0.60;99.90
53876;DHT22;39789;53.216;5.624;2023-02-07T01:13:45;0.70;99.90
53876;DHT22;39789;53.216;5.624;2023-02-07T01:16:40;0.70;99.90
53876;DHT22;39789;53.216;5.624;2023-02-07T01:19:07;0.60;99.90
53876;DHT22;39789;53.216;5.624;2023-02-07T01:21:32;0.90;99.90
53876;DHT22;39789;53.216;5.624;2023-02-07T01:23:58;0.50;99.90
53876;DHT22;39789;53.216;5.624;2023-02-07T01:26:24;1.10;99.90
53876;DHT22;39789;53.216;5.624;2023-02-07T01:28:50;1.20;99.90
53876;DHT22;39789;53.216;5.624;2023-02-07T01:31:17;0.50;99.90
53876;DHT22;39789;53.216;5.624;2023-02-07T01:33:42;0.80;99.90
53876;DHT22;39789;53.216;5.624;2023-02-07T01:36:13;1.30;99.90
53876;DHT22;39789;53.216;5.624;2023-02-07T01:38:39;0.70;99.90
53876;DHT22;39789;53.216;5.624;2023-02-07T01:41:06;0.10;99.90
53876;DHT22;39789;53.216;5.624;2023-02-07T01:43:31;0.30;99.90
53876;DHT22;39789;53.216;5.624;2023-02-07T01:45:57;0.80;99.90
53876;DHT22;39789;53.216;5.624;2023-02-07T01:48:30;0.30;99.90
53876;DHT22;39789;53.216;5.624;2023-02-07T01:51:00;0.20;99.90
53876;DHT22;39789;53.216;5.624;2023-02-07T01:53:28;0.30;99.90
53876;DHT22;39789;53.216;5.624;2023-02-07T01:55:58;1.10;99.90
53876;DHT22;39789;53.216;5.624;2023-02-07T01:58:26;0.20;99.90
53876;DHT22;39789;53.216;5.624;2023-02-07T02:00:52;0.20;99.90
53876;DHT22;39789;53.216;5.624;2023-02-07T02:03:17;0.20;99.90
53876;DHT22;39789;53.216;5.624;2023-02-07T02:05:44;0.10;99.90
53876;DHT22;39789;53.216;5.624;2023-02-07T02:08:10;0.20;99.90
53876;DHT22;39789;53.216;5.624;2023-02-07T02:11:01;0.10;99.90
53876;DHT22;39789;53.216;5.624;2023-02-07T02:19:12;0.50;99.90
53876;DHT22;39789;53.216;5.624;2023-02-07T02:31:19;0.60;99.90
53876;DHT22;39789;53.216;5.624;2023-02-07T02:33:39;0.70;99.90
53876;DHT22;39789;53.216;5.624;2023-02-07T02:36:15;0.70;99.90
53876;DHT22;39789;53.216;5.624;2023-02-07T02:41:37;0.70;99.90
53876;DHT22;39789;53.216;5.624;2023-02-07T02:44:19;0.70;99.90
53876;DHT22;39789;53.216;5.624;2023-02-07T02:46:46;0.70;99.90
53876;DHT22;39789;53.216;5.624;2023-02-07T02:49:14;1.10;99.90
53876;DHT22;39789;53.216;5.624;2023-02-07T02:51:40;1.10;99.90
53876;DHT22;39789;53.216;5.624;2023-02-07T02:54:26;0.60;99.90
53876;DHT22;39789;53.216;5.624;2023-02-07T03:08:40;0.60;99.90
53876;DHT22;39789;53.216;5.624;2023-02-07T03:11:17;0.60;99.90
53876;DHT22;39789;53.216;5.624;2023-02-07T03:17:27;0.50;99.90
53876;DHT22;39789;53.216;5.624;2023-02-07T03:19:39;0.50;99.90
53876;DHT22;39789;53.216;5.624;2023-02-07T03:22:09;0.70;99.90
53876;DHT22;39789;53.216;5.624;2023-02-07T03:24:41;0.50;99.90
53876;DHT22;39789;53.216;5.624;2023-02-07T03:27:12;0.40;99.90
53876;DHT22;39789;53.216;5.624;2023-02-07T03:29:40;0.50;99.90
53876;DHT22;39789;53.216;5.624;2023-02-07T03:32:08;0.40;99.90
53876;DHT22;39789;53.216;5.624;2023-02-07T03:34:46;0.40;99.90
53876;DHT22;39789;53.216;5.624;2023-02-07T03:37:47;1.20;99.90
53876;DHT22;39789;53.216;5.624;2023-02-07T03:40:15;0.40;99.90
53876;DHT22;39789;53.216;5.624;2023-02-07T03:42:49;0.30;99.90
53876;DHT22;39789;53.216;5.624;2023-02-07T03:45:18;0.70;99.90
53876;DHT22;39789;53.216;5.624;2023-02-07T03:47:44;1.10;99.90
53876;DHT22;39789;53.216;5.624;2023-02-07T03:50:10;0.30;99.90
53876;DHT22;39789;53.216;5.624;2023-02-07T03:52:36;0.30;99.90
53876;DHT22;39789;53.216;5.624;2023-02-07T03:55:02;0.30;99.90
53876;DHT22;39789;53.216;5.624;2023-02-07T03:57:28;1.50;99.90
53876;DHT22;39789;53.216;5.624;2023-02-07T03:59:53;0.50;99.90
53876;DHT22;39789;53.216;5.624;2023-02-07T04:02:19;1.30;99.90
53876;DHT22;39789;53.216;5.624;2023-02-07T04:04:44;0.70;99.90
53876;DHT22;39789;53.216;5.624;2023-02-07T04:07:10;1.20;99.90
53876;DHT22;39789;53.216;5.624;2023-02-07T04:09:36;1.00;99.90
53876;DHT22;39789;53.216;5.624;2023-02-07T04:12:01;0.60;99.90
53876;DHT22;39789;53.216;5.624;2023-02-07T04:14:28;0.10;99.90
53876;DHT22;39789;53.216;5.624;2023-02-07T04:16:54;1.00;99.90
53876;DHT22;39789;53.216;5.624;2023-02-07T04:19:19;0.90;99.90
53876;DHT22;39789;53.216;5.624;2023-02-07T04:21:45;0.20;99.90
53876;DHT22;39789;53.216;5.624;2023-02-07T04:24:11;0.50;99.90
53876;DHT22;39789;53.216;5.624;2023-02-07T04:26:37;0.80;99.90
53876;DHT22;39789;53.216;5.624;2023-02-07T04:29:02;0.10;99.90
53876;DHT22;39789;53.216;5.624;2023-02-07T04:31:28;0.10;99.90
53876;DHT22;39789;53.216;5.624;2023-02-07T04:33:53;0.90;99.90
53876;DHT22;39789;53.216;5.624;2023-02-07T04:36:19;1.10;99.90
53876;DHT22;39789;53.216;5.624;2023-02-07T04:38:45;0.00;99.90
53876;DHT22;39789;53.216;5.624;2023-02-07T04:41:10;0.00;99.90
53876;DHT22;39789;53.216;5.624;2023-02-07T04:43:36;0.90;99.90
53876;DHT22;39789;53.216;5.624;2023-02-07T04:46:03;0.70;99.90
53876;DHT22;39789;53.216;5.624;2023-02-07T04:48:30;0.10;99.90
53876;DHT22;39789;53.216;5.624;2023-02-07T04:50:56;0.00;99.90
53876;DHT22;39789;53.216;5.624;2023-02-07T04:53:21;0.00;99.90
53876;DHT22;39789;53.216;5.624;2023-02-07T04:55:52;0.10;99.90
53876;DHT22;39789;53.216;5.624;2023-02-07T04:58:18;0.40;99.90
53876;DHT22;39789;53.216;5.624;2023-02-07T05:00:45;0.10;99.90
53876;DHT22;39789;53.216;5.624;2023-02-07T05:03:10;0.90;99.90
53876;DHT22;39789;53.216;5.624;2023-02-07T05:05:41;0.00;99.90
53876;DHT22;39789;53.216;5.624;2023-02-07T05:08:07;-0.10;99.90
53876;DHT22;39789;53.216;5.624;2023-02-07T05:10:33;-0.10;99.90
53876;DHT22;39789;53.216;5.624;2023-02-07T05:12:59;-0.30;99.90
53876;DHT22;39789;53.216;5.624;2023-02-07T05:15:24;-0.10;99.90
53876;DHT22;39789;53.216;5.624;2023-02-07T05:17:50;0.80;99.90
53876;DHT22;39789;53.216;5.624;2023-02-07T05:20:17;0.00;99.90
53876;DHT22;39789;53.216;5.624;2023-02-07T05:22:43;0.00;99.90
53876;DHT22;39789;53.216;5.624;2023-02-07T05:25:08;0.80;99.90
53876;DHT22;39789;53.216;5.624;2023-02-07T05:27:34;0.00;99.90
53876;DHT22;39789;53.216;5.624;2023-02-07T05:29:59;0.90;99.90
53876;DHT22;39789;53.216;5.624;2023-02-07T05:32:25;0.30;99.90
53876;DHT22;39789;53.216;5.624;2023-02-07T05:35:09;-0.10;99.90
53876;DHT22;39789;53.216;5.624;2023-02-07T05:37:35;-0.20;99.90
53876;DHT22;39789;53.216;5.624;2023-02-07T05:40:01;0.20;99.90
53876;DHT22;39789;53.216;5.624;2023-02-07T05:42:26;-0.10;99.90
53876;DHT22;39789;53.216;5.624;2023-02-07T05:44:52;0.80;99.90
53876;DHT22;39789;53.216;5.624;2023-02-07T05:47:18;-0.10;99.90
53876;DHT22;39789;53.216;5.624;2023-02-07T05:49:44;0.50;99.90
53876;DHT22;39789;53.216;5.624;2023-02-07T05:52:09;0.30;99.90
53876;DHT22;39789;53.216;5.624;2023-02-07T05:54:35;0.30;99.90
53876;DHT22;39789;53.216;5.624;2023-02-07T05:57:00;-0.10;99.90
53876;DHT22;39789;53.216;5.624;2023-02-07T05:59:26;-0.10;99.90
53876;DHT22;39789;53.216;5.624;2023-02-07T06:01:51;0.60;99.90
53876;DHT22;39789;53.216;5.624;2023-02-07T06:04:17;0.50;99.90
53876;DHT22;39789;53.216;5.624;2023-02-07T06:06:42;0.50;99.90
53876;DHT22;39789;53.216;5.624;2023-02-07T06:09:08;0.60;99.90
53876;DHT22;39789;53.216;5.624;2023-02-07T06:11:33;0.50;99.90
53876;DHT22;39789;53.216;5.624;2023-02-07T06:13:59;0.40;99.90
53876;DHT22;39789;53.216;5.624;2023-02-07T06:16:24;0.50;99.90
53876;DHT22;39789;53.216;5.624;2023-02-07T06:18:50;-0.20;99.90
53876;DHT22;39789;53.216;5.624;2023-02-07T06:21:16;0.40;99.90
53876;DHT22;39789;53.216;5.624;2023-02-07T06:23:41;-0.20;99.90
53876;DHT22;39789;53.216;5.624;2023-02-07T06:26:07;-0.30;99.90
53876;DHT22;39789;53.216;5.624;2023-02-07T06:28:33;0.80;99.90
53876;DHT22;39789;53.216;5.624;2023-02-07T06:30:58;-0.20;99.90
53876;DHT22;39789;53.216;5.624;2023-02-07T06:33:24;0.20;99.90
53876;DHT22;39789;53.216;5.624;2023-02-07T06:35:49;0.70;99.90
53876;DHT22;39789;53.216;5.624;2023-02-07T06:38:17;0.30;99.90
53876;DHT22;39789;53.216;5.624;2023-02-07T06:40:43;0.20;99.90
53876;DHT22;39789;53.216;5.624;2023-02-07T06:43:09;0.40;99.90
53876;DHT22;39789;53.216;5.624;2023-02-07T06:45:35;-0.40;99.90
53876;DHT22;39789;53.216;5.624;2023-02-07T06:48:01;-0.30;99.90
53876;DHT22;39789;53.216;5.624;2023-02-07T06:50:26;0.70;99.90
53876;DHT22;39789;53.216;5.624;2023-02-07T06:52:52;0.20;99.90
53876;DHT22;39789;53.216;5.624;2023-02-07T06:55:18;-0.40;99.90
53876;DHT22;39789;53.216;5.624;2023-02-07T06:57:43;-0.40;99.90
53876;DHT22;39789;53.216;5.624;2023-02-07T07:00:09;-0.50;99.90
53876;DHT22;39789;53.216;5.624;2023-02-07T07:02:35;-0.50;99.90
53876;DHT22;39789;53.216;5.624;2023-02-07T07:05:01;-0.60;99.90
53876;DHT22;39789;53.216;5.624;2023-02-07T07:07:27;-0.60;99.90
53876;DHT22;39789;53.216;5.624;2023-02-07T07:09:52;-0.60;99.90
53876;DHT22;39789;53.216;5.624;2023-02-07T07:12:18;0.30;99.90
53876;DHT22;39789;53.216;5.624;2023-02-07T07:14:43;-0.70;99.90
53876;DHT22;39789;53.216;5.624;2023-02-07T07:17:09;-0.70;99.90
53876;DHT22;39789;53.216;5.624;2023-02-07T07:19:34;-0.10;99.90
53876;DHT22;39789;53.216;5.624;2023-02-07T07:22:00;-0.70;99.90
53876;DHT22;39789;53.216;5.624;2023-02-07T07:24:26;0.30;99.90
53876;DHT22;39789;53.216;5.624;2023-02-07T07:26:52;0.20;99.90
53876;DHT22;39789;53.216;5.624;2023-02-07T07:29:18;-0.30;99.90
53876;DHT22;39789;53.216;5.624;2023-02-07T07:31:45;0.30;99.90
53876;DHT22;39789;53.216;5.624;2023-02-07T07:34:11;-0.70;99.90
53876;DHT22;39789;53.216;5.624;2023-02-07T07:36:36;-0.60;99.90
53876;DHT22;39789;53.216;5.624;2023-02-07T07:39:03;-0.60;99.90
53876;DHT22;39789;53.216;5.624;2023-02-07T07:41:28;-0.50;99.90
53876;DHT22;39789;53.216;5.624;2023-02-07T07:43:54;-0.60;99.90
53876;DHT22;39789;53.216;5.624;2023-02-07T07:46:20;0.20;99.90
53876;DHT22;39789;53.216;5.624;2023-02-07T07:48:45;0.00;99.90
53876;DHT22;39789;53.216;5.624;2023-02-07T07:51:11;-0.30;99.90
53876;DHT22;39789;53.216;5.624;2023-02-07T07:53:36;0.10;99.90
53876;DHT22;39789;53.216;5.624;2023-02-07T07:56:02;0.40;99.90
53876;DHT22;39789;53.216;5.624;2023-02-07T07:58:28;-0.60;99.90
53876;DHT22;39789;53.216;5.624;2023-02-07T08:00:54;-0.60;99.90
53876;DHT22;39789;53.216;5.624;2023-02-07T08:03:20;0.40;99.90
53876;DHT22;39789;53.216;5.624;2023-02-07T08:05:46;-0.60;99.90
53876;DHT22;39789;53.216;5.624;2023-02-07T08:08:12;0.20;99.90
53876;DHT22;39789;53.216;5.624;2023-02-07T08:10:38;-0.50;99.90
53876;DHT22;39789;53.216;5.624;2023-02-07T08:13:04;0.40;99.90
53876;DHT22;39789;53.216;5.624;2023-02-07T08:15:29;-0.30;99.90
53876;DHT22;39789;53.216;5.624;2023-02-07T08:17:55;-0.50;99.90
53876;DHT22;39789;53.216;5.624;2023-02-07T08:20:20;0.50;99.90
53876;DHT22;39789;53.216;5.624;2023-02-07T08:22:46;-0.30;99.90
53876;DHT22;39789;53.216;5.624;2023-02-07T08:25:12;0.80;99.90
53876;DHT22;39789;53.216;5.624;2023-02-07T08:27:37;0.00;99.90
53876;DHT22;39789;53.216;5.624;2023-02-07T08:30:05;0.20;99.90
53876;DHT22;39789;53.216;5.624;2023-02-07T08:32:31;-0.30;99.90
53876;DHT22;39789;53.216;5.624;2023-02-07T08:34:57;0.90;99.90
53876;DHT22;39789;53.216;5.624;2023-02-07T08:37:23;0.70;99.90
53876;DHT22;39789;53.216;5.624;2023-02-07T08:39:48;0.80;99.90
53876;DHT22;39789;53.216;5.624;2023-02-07T08:42:18;0.60;99.90
53876;DHT22;39789;53.216;5.624;2023-02-07T08:44:45;-0.10;99.90
53876;DHT22;39789;53.216;5.624;2023-02-07T08:47:11;0.40;99.90
53876;DHT22;39789;53.216;5.624;2023-02-07T08:49:37;1.00;99.90
53876;DHT22;39789;53.216;5.624;2023-02-07T08:52:03;0.50;99.90
53876;DHT22;39789;53.216;5.624;2023-02-07T08:54:28;0.10;99.90
53876;DHT22;39789;53.216;5.624;2023-02-07T08:56:54;0.20;99.90
53876;DHT22;39789;53.216;5.624;2023-02-07T08:59:19;0.40;99.90
53876;DHT22;39789;53.216;5.624;2023-02-07T09:01:45;0.20;99.90
53876;DHT22;39789;53.216;5.624;2023-02-07T09:04:11;0.60;99.90
53876;DHT22;39789;53.216;5.624;2023-02-07T09:06:37;0.80;99.90
53876;DHT22;39789;53.216;5.624;2023-02-07T09:09:03;0.90;99.90
53876;DHT22;39789;53.216;5.624;2023-02-07T09:11:29;0.30;99.90
53876;DHT22;39789;53.216;5.624;2023-02-07T09:13:55;0.50;99.90
53876;DHT22;39789;53.216;5.624;2023-02-07T09:16:20;0.50;99.90
53876;DHT22;39789;53.216;5.624;2023-02-07T09:18:47;0.60;99.90
53876;DHT22;39789;53.216;5.624;2023-02-07T09:21:13;1.60;99.90
53876;DHT22;39789;53.216;5.624;2023-02-07T09:23:39;0.50;99.90
53876;DHT22;39789;53.216;5.624;2023-02-07T09:26:06;0.90;99.90
53876;DHT22;39789;53.216;5.624;2023-02-07T09:28:33;1.30;99.90
53876;DHT22;39789;53.216;5.624;2023-02-07T09:30:59;1.20;99.90
53876;DHT22;39789;53.216;5.624;2023-02-07T09:33:25;0.80;99.90
53876;DHT22;39789;53.216;5.624;2023-02-07T09:35:51;0.80;99.90
53876;DHT22;39789;53.216;5.624;2023-02-07T09:38:20;1.10;99.90
53876;DHT22;39789;53.216;5.624;2023-02-07T09:40:48;0.90;99.90
53876;DHT22;39789;53.216;5.624;2023-02-07T09:45:56;1.80;99.90
53876;DHT22;39789;53.216;5.624;2023-02-07T09:48:32;1.10;99.90
53876;DHT22;39789;53.216;5.624;2023-02-07T09:51:03;1.10;99.90
53876;DHT22;39789;53.216;5.624;2023-02-07T09:53:33;1.20;99.90
53876;DHT22;39789;53.216;5.624;2023-02-07T09:56:04;1.30;99.90
53876;DHT22;39789;53.216;5.624;2023-02-07T09:58:56;1.30;99.90
53876;DHT22;39789;53.216;5.624;2023-02-07T10:01:29;1.40;99.90
53876;DHT22;39789;53.216;5.624;2023-02-07T10:06:44;1.50;99.90
53876;DHT22;39789;53.216;5.624;2023-02-07T10:09:16;1.50;99.90
53876;DHT22;39789;53.216;5.624;2023-02-07T10:12:00;1.60;99.90
53876;DHT22;39789;53.216;5.624;2023-02-07T10:31:20;2.10;99.90
53876;DHT22;39789;53.216;5.624;2023-02-07T10:33:54;2.10;99.90
53876;DHT22;39789;53.216;5.624;2023-02-07T10:36:20;2.00;99.90
53876;DHT22;39789;53.216;5.624;2023-02-07T10:41:43;2.30;99.90
53876;DHT22;39789;53.216;5.624;2023-02-07T10:44:20;2.10;99.90
53876;DHT22;39789;53.216;5.624;2023-02-07T10:46:54;2.30;99.90
53876;DHT22;39789;53.216;5.624;2023-02-07T10:49:24;2.20;99.90
53876;DHT22;39789;53.216;5.624;2023-02-07T10:51:51;2.40;99.90
53876;DHT22;39789;53.216;5.624;2023-02-07T10:54:20;2.50;99.90
53876;DHT22;39789;53.216;5.624;2023-02-07T10:56:54;2.50;99.90
53876;DHT22;39789;53.216;5.624;2023-02-07T10:59:40;2.60;99.90
53876;DHT22;39789;53.216;5.624;2023-02-07T11:04:59;2.70;99.90
53876;DHT22;39789;53.216;5.624;2023-02-07T11:07:25;2.40;99.90
53876;DHT22;39789;53.216;5.624;2023-02-07T11:09:51;2.70;99.90
53876;DHT22;39789;53.216;5.624;2023-02-07T11:12:47;2.80;99.90
53876;DHT22;39789;53.216;5.624;2023-02-07T11:15:22;2.90;99.90
53876;DHT22;39789;53.216;5.624;2023-02-07T11:17:54;2.90;99.90
53876;DHT22;39789;53.216;5.624;2023-02-07T11:22:54;3.10;99.90
53876;DHT22;39789;53.216;5.624;2023-02-07T11:26:04;2.80;99.90
53876;DHT22;39789;53.216;5.624;2023-02-07T11:28:27;3.20;99.90
53876;DHT22;39789;53.216;5.624;2023-02-07T11:30:58;3.20;99.90
53876;DHT22;39789;53.216;5.624;2023-02-07T11:33:29;3.00;99.90
53876;DHT22;39789;53.216;5.624;2023-02-07T11:36:30;2.90;99.90
53876;DHT22;39789;53.216;5.624;2023-02-07T11:38:58;3.40;99.90
53876;DHT22;39789;53.216;5.624;2023-02-07T11:41:27;3.20;99.90
53876;DHT22;39789;53.216;5.624;2023-02-07T11:44:01;3.50;99.90
53876;DHT22;39789;53.216;5.624;2023-02-07T11:46:38;3.60;99.90
53876;DHT22;39789;53.216;5.624;2023-02-07T11:49:16;3.80;99.90
53876;DHT22;39789;53.216;5.624;2023-02-07T11:51:44;3.70;99.90
53876;DHT22;39789;53.216;5.624;2023-02-07T11:54:11;3.70;99.90
53876;DHT22;39789;53.216;5.624;2023-02-07T11:56:41;3.50;99.90
53876;DHT22;39789;53.216;5.624;2023-02-07T11:59:21;3.70;99.90
53876;DHT22;39789;53.216;5.624;2023-02-07T12:01:50;3.70;99.90
53876;DHT22;39789;53.216;5.624;2023-02-07T12:04:26;3.90;99.90
53876;DHT22;39789;53.216;5.624;2023-02-07T12:10:38;4.00;99.90
53876;DHT22;39789;53.216;5.624;2023-02-07T12:18:20;4.10;99.90
53876;DHT22;39789;53.216;5.624;2023-02-07T12:21:00;4.20;99.90
53876;DHT22;39789;53.216;5.624;2023-02-07T12:23:47;4.20;99.90
53876;DHT22;39789;53.216;5.624;2023-02-07T12:30:11;4.10;99.90
53876;DHT22;39789;53.216;5.624;2023-02-07T12:33:07;4.90;99.90
53876;DHT22;39789;53.216;5.624;2023-02-07T12:39:19;5.30;99.90
53876;DHT22;39789;53.216;5.624;2023-02-07T12:44:57;4.10;99.90
53876;DHT22;39789;53.216;5.624;2023-02-07T12:50:10;4.50;99.90
53876;DHT22;39789;53.216;5.624;2023-02-07T12:53:04;4.50;99.90
53876;DHT22;39789;53.216;5.624;2023-02-07T12:58:54;4.60;99.90
53876;DHT22;39789;53.216;5.624;2023-02-07T13:01:37;4.60;99.90
53876;DHT22;39789;53.216;5.624;2023-02-07T13:04:24;4.60;99.90
53876;DHT22;39789;53.216;5.624;2023-02-07T13:13:40;4.70;99.90
53876;DHT22;39789;53.216;5.624;2023-02-07T13:15:57;4.70;99.90
53876;DHT22;39789;53.216;5.624;2023-02-07T13:21:21;4.70;99.90
53876;DHT22;39789;53.216;5.624;2023-02-07T13:23:48;4.80;99.90
53876;DHT22;39789;53.216;5.624;2023-02-07T13:26:21;4.80;99.90
53876;DHT22;39789;53.216;5.624;2023-02-07T13:29:03;4.90;99.90
53876;DHT22;39789;53.216;5.624;2023-02-07T13:31:54;4.90;99.90
53876;DHT22;39789;53.216;5.624;2023-02-07T13:34:34;4.90;99.90
53876;DHT22;39789;53.216;5.624;2023-02-07T13:37:05;4.90;99.90
53876;DHT22;39789;53.216;5.624;2023-02-07T13:43:01;4.90;99.90
53876;DHT22;39789;53.216;5.624;2023-02-07T13:45:53;4.90;99.90
53876;DHT22;39789;53.216;5.624;2023-02-07T13:48:34;4.90;99.90
53876;DHT22;39789;53.216;5.624;2023-02-07T13:55:01;4.90;99.90
53876;DHT22;39789;53.216;5.624;2023-02-07T14:00:21;4.90;99.90
53876;DHT22;39789;53.216;5.624;2023-02-07T14:02:52;4.90;99.90
53876;DHT22;39789;53.216;5.624;2023-02-07T14:05:40;5.00;99.90
53876;DHT22;39789;53.216;5.624;2023-02-07T14:10:45;5.00;99.90
53876;DHT22;39789;53.216;5.624;2023-02-07T14:15:56;5.00;99.90
53876;DHT22;39789;53.216;5.624;2023-02-07T14:31:57;5.10;99.90
53876;DHT22;39789;53.216;5.624;2023-02-07T14:34:23;5.10;99.90
53876;DHT22;39789;53.216;5.624;2023-02-07T14:36:52;5.10;99.90
53876;DHT22;39789;53.216;5.624;2023-02-07T14:39:33;5.10;99.90
53876;DHT22;39789;53.216;5.624;2023-02-07T14:42:11;5.10;99.90
53876;DHT22;39789;53.216;5.624;2023-02-07T14:44:39;5.10;99.90
53876;DHT22;39789;53.216;5.624;2023-02-07T14:47:07;5.10;99.90
53876;DHT22;39789;53.216;5.624;2023-02-07T14:49:47;5.10;99.90
53876;DHT22;39789;53.216;5.624;2023-02-07T14:52:25;5.10;99.90
53876;DHT22;39789;53.216;5.624;2023-02-07T14:55:05;5.10;99.90
53876;DHT22;39789;53.216;5.624;2023-02-07T14:57:36;5.10;99.90
53876;DHT22;39789;53.216;5.624;2023-02-07T15:02:49;5.10;99.90
53876;DHT22;39789;53.216;5.624;2023-02-07T15:05:19;5.10;99.90
53876;DHT22;39789;53.216;5.624;2023-02-07T15:07:46;5.00;99.90
53876;DHT22;39789;53.216;5.624;2023-02-07T15:10:13;5.00;99.90
53876;DHT22;39789;53.216;5.624;2023-02-07T15:12:40;4.90;99.90
53876;DHT22;39789;53.216;5.624;2023-02-07T15:15:19;4.90;99.90
53876;DHT22;39789;53.216;5.624;2023-02-07T15:17:46;4.90;99.90
53876;DHT22;39789;53.216;5.624;2023-02-07T15:20:18;4.80;99.90
53876;DHT22;39789;53.216;5.624;2023-02-07T15:22:53;4.80;99.90
53876;DHT22;39789;53.216;5.624;2023-02-07T15:25:19;4.70;99.90
53876;DHT22;39789;53.216;5.624;2023-02-07T15:31:15;4.60;99.90
53876;DHT22;39789;53.216;5.624;2023-02-07T15:34:00;4.60;99.90
53876;DHT22;39789;53.216;5.624;2023-02-07T15:36:35;4.60;99.90
53876;DHT22;39789;53.216;5.624;2023-02-07T15:39:04;4.50;99.90
53876;DHT22;39789;53.216;5.624;2023-02-07T15:41:31;5.50;99.90
53876;DHT22;39789;53.216;5.624;2023-02-07T15:44:02;4.40;99.90
53876;DHT22;39789;53.216;5.624;2023-02-07T15:51:52;4.30;99.90
53876;DHT22;39789;53.216;5.624;2023-02-07T15:54:19;4.20;99.90
53876;DHT22;39789;53.216;5.624;2023-02-07T15:56:49;4.20;99.90
53876;DHT22;39789;53.216;5.624;2023-02-07T15:59:18;4.10;99.90
53876;DHT22;39789;53.216;5.624;2023-02-07T16:01:52;4.00;99.90
53876;DHT22;39789;53.216;5.624;2023-02-07T16:04:18;4.00;99.90
53876;DHT22;39789;53.216;5.624;2023-02-07T16:07:03;3.90;99.90
53876;DHT22;39789;53.216;5.624;2023-02-07T16:09:38;3.80;99.90
53876;DHT22;39789;53.216;5.624;2023-02-07T16:12:31;3.70;99.90
53876;DHT22;39789;53.216;5.624;2023-02-07T16:14:58;3.60;99.90
53876;DHT22;39789;53.216;5.624;2023-02-07T16:17:38;3.50;99.90
53876;DHT22;39789;53.216;5.624;2023-02-07T16:20:08;3.40;99.90
53876;DHT22;39789;53.216;5.624;2023-02-07T16:22:33;3.30;99.90
53876;DHT22;39789;53.216;5.624;2023-02-07T16:25:02;3.20;99.90
53876;DHT22;39789;53.216;5.624;2023-02-07T16:27:29;3.10;99.90
53876;DHT22;39789;53.216;5.624;2023-02-07T16:30:00;3.00;99.90
53876;DHT22;39789;53.216;5.624;2023-02-07T16:32:31;2.90;99.90
53876;DHT22;39789;53.216;5.624;2023-02-07T16:34:57;2.80;99.90
53876;DHT22;39789;53.216;5.624;2023-02-07T16:37:25;2.70;99.90
53876;DHT22;39789;53.216;5.624;2023-02-07T16:39:50;2.60;99.90
53876;DHT22;39789;53.216;5.624;2023-02-07T16:42:16;2.50;99.90
53876;DHT22;39789;53.216;5.624;2023-02-07T16:44:44;2.40;99.90
53876;DHT22;39789;53.216;5.624;2023-02-07T16:47:12;2.30;99.90
53876;DHT22;39789;53.216;5.624;2023-02-07T16:49:38;2.30;99.90
53876;DHT22;39789;53.216;5.624;2023-02-07T16:52:04;2.20;99.90
53876;DHT22;39789;53.216;5.624;2023-02-07T16:54:30;2.10;99.90
53876;DHT22;39789;53.216;5.624;2023-02-07T16:56:57;2.10;99.90
53876;DHT22;39789;53.216;5.624;2023-02-07T16:59:23;2.00;99.90
53876;DHT22;39789;53.216;5.624;2023-02-07T17:01:51;1.90;99.90
53876;DHT22;39789;53.216;5.624;2023-02-07T17:04:18;1.90;99.90
53876;DHT22;39789;53.216;5.624;2023-02-07T17:06:44;1.80;99.90
53876;DHT22;39789;53.216;5.624;2023-02-07T17:09:19;1.80;99.90
53876;DHT22;39789;53.216;5.624;2023-02-07T17:11:45;1.80;99.90
53876;DHT22;39789;53.216;5.624;2023-02-07T17:14:11;1.80;99.90
53876;DHT22;39789;53.216;5.624;2023-02-07T17:16:37;1.70;99.90
53876;DHT22;39789;53.216;5.624;2023-02-07T17:19:15;2.00;99.90
53876;DHT22;39789;53.216;5.624;2023-02-07T17:21:42;1.70;99.90
53876;DHT22;39789;53.216;5.624;2023-02-07T17:24:09;2.30;99.90
53876;DHT22;39789;53.216;5.624;2023-02-07T17:26:35;1.60;99.90
53876;DHT22;39789;53.216;5.624;2023-02-07T17:29:02;1.60;99.90
53876;DHT22;39789;53.216;5.624;2023-02-07T17:31:28;1.60;99.90
53876;DHT22;39789;53.216;5.624;2023-02-07T17:33:54;1.60;99.90
53876;DHT22;39789;53.216;5.624;2023-02-07T17:36:21;1.60;99.90
53876;DHT22;39789;53.216;5.624;2023-02-07T17:38:46;1.50;99.90
53876;DHT22;39789;53.216;5.624;2023-02-07T17:41:13;1.50;99.90
53876;DHT22;39789;53.216;5.624;2023-02-07T17:43:39;1.40;99.90
53876;DHT22;39789;53.216;5.624;2023-02-07T17:46:21;1.40;99.90
53876;DHT22;39789;53.216;5.624;2023-02-07T17:48:48;1.40;99.90
53876;DHT22;39789;53.216;5.624;2023-02-07T17:51:16;1.30;99.90
53876;DHT22;39789;53.216;5.624;2023-02-07T17:53:43;1.20;99.90
53876;DHT22;39789;53.216;5.624;2023-02-07T17:56:22;1.10;99.90
53876;DHT22;39789;53.216;5.624;2023-02-07T17:58:48;1.20;99.90
53876;DHT22;39789;53.216;5.624;2023-02-07T18:01:13;1.10;99.90
53876;DHT22;39789;53.216;5.624;2023-02-07T18:03:47;1.10;99.90
53876;DHT22;39789;53.216;5.624;2023-02-07T18:06:14;1.00;99.90
53876;DHT22;39789;53.216;5.624;2023-02-07T18:08:40;1.40;99.90
53876;DHT22;39789;53.216;5.624;2023-02-07T18:11:06;1.10;99.90
53876;DHT22;39789;53.216;5.624;2023-02-07T18:13:32;1.10;99.90
53876;DHT22;39789;53.216;5.624;2023-02-07T18:15:58;1.70;99.90